createdAt,value
2023-03-16T00:00:13.998Z,92.20
2023-03-16T00:03:22.236Z,92.30
2023-03-16T00:06:25.742Z,92.10
2023-03-16T00:09:31.462Z,92.70
2023-03-16T00:12:34.917Z,92.70
2023-03-16T00:15:36.971Z,92.60
2023-03-16T00:18:39.297Z,92.80
2023-03-16T00:21:41.406Z,92.60
2023-03-16T00:24:44.501Z,92.70
2023-03-16T00:27:47.691Z,93.10
2023-03-16T00:30:49.966Z,93.30
2023-03-16T00:33:54.632Z,93.30
2023-03-16T00:36:59.973Z,93.40
2023-03-16T00:40:02.293Z,93.40
2023-03-16T00:43:04.579Z,93.20
2023-03-16T00:46:16.430Z,93.20
2023-03-16T00:49:22.561Z,93.20
2023-03-16T00:52:29.104Z,93.10
2023-03-16T00:55:35.570Z,93.10
2023-03-16T00:58:40.456Z,93.50
2023-03-16T01:01:42.746Z,93.50
2023-03-16T01:04:44.957Z,93.20
2023-03-16T01:07:47.095Z,93.30
2023-03-16T01:10:49.285Z,93.40
2023-03-16T01:13:54.485Z,93.60
2023-03-16T01:16:56.830Z,93.70
2023-03-16T01:19:58.872Z,93.50
2023-03-16T01:23:00.884Z,93.60
2023-03-16T01:26:03.289Z,93.70
2023-03-16T01:29:05.434Z,93.60
2023-03-16T01:32:07.848Z,93.80
2023-03-16T01:35:10.570Z,93.80
2023-03-16T01:38:12.891Z,94.00
2023-03-16T01:41:15.292Z,94.10
2023-03-16T01:44:24.485Z,93.80
2023-03-16T01:47:26.903Z,94.10
2023-03-16T01:50:29.652Z,93.90
2023-03-16T01:53:33.538Z,94.10
2023-03-16T01:56:48.581Z,94.10
2023-03-16T01:59:53.218Z,94.30
2023-03-16T02:03:08.460Z,94.30
2023-03-16T02:06:15.380Z,94.40
2023-03-16T02:09:18.954Z,94.60
2023-03-16T02:12:21.710Z,94.60
2023-03-16T02:15:23.754Z,94.70
2023-03-16T02:18:26.590Z,94.90
2023-03-16T02:21:47.383Z,94.70
2023-03-16T02:24:49.398Z,94.80
2023-03-16T02:28:10.924Z,95.00
2023-03-16T02:31:13.160Z,95.00
2023-03-16T02:34:17.950Z,95.20
2023-03-16T02:37:19.996Z,95.10
2023-03-16T02:40:27.025Z,95.70
2023-03-16T02:43:34.651Z,96.10
2023-03-16T02:46:37.687Z,96.10
2023-03-16T02:49:44.562Z,96.30
2023-03-16T02:52:48.529Z,96.30
2023-03-16T02:55:50.874Z,96.30
2023-03-16T02:58:53.214Z,96.40
2023-03-16T03:01:55.337Z,96.20
2023-03-16T03:04:57.353Z,96.50
2023-03-16T03:07:59.725Z,96.60
2023-03-16T03:11:01.720Z,96.60
2023-03-16T03:14:04.221Z,96.60
2023-03-16T03:17:08.072Z,96.50
2023-03-16T03:20:17.961Z,96.50
2023-03-16T03:23:20.127Z,96.40
2023-03-16T03:26:24.694Z,96.50
2023-03-16T03:29:34.501Z,96.50
2023-03-16T03:32:44.355Z,96.50
2023-03-16T03:35:46.552Z,96.40
2023-03-16T03:38:50.709Z,96.70
2023-03-16T03:41:54.722Z,96.50
2023-03-16T03:44:56.794Z,96.60
2023-03-16T03:47:58.859Z,96.60
2023-03-16T03:51:01.507Z,96.60
2023-03-16T03:54:03.712Z,96.40
2023-03-16T03:57:05.939Z,96.60
2023-03-16T04:00:12.183Z,96.70
2023-03-16T04:03:14.854Z,96.70
2023-03-16T04:06:17.257Z,96.90
2023-03-16T04:09:20.262Z,96.80
2023-03-16T04:12:22.421Z,96.80
2023-03-16T04:15:24.791Z,96.90
2023-03-16T04:18:27.184Z,97.00
2023-03-16T04:21:29.279Z,97.10
2023-03-16T04:24:34.377Z,97.10
2023-03-16T04:27:36.749Z,97.20
2023-03-16T04:30:38.796Z,97.20
2023-03-16T04:33:42.534Z,97.20
2023-03-16T04:36:44.581Z,97.50
2023-03-16T04:39:46.894Z,97.60
2023-03-16T04:42:49.027Z,97.60
2023-03-16T04:45:51.161Z,98.00
2023-03-16T04:48:54.383Z,98.10
2023-03-16T04:51:57.847Z,98.10
2023-03-16T04:54:59.839Z,98.30
2023-03-16T04:58:01.917Z,98.30
2023-03-16T05:01:03.982Z,98.20
2023-03-16T05:04:06.006Z,98.00
2023-03-16T05:07:08.096Z,98.00
2023-03-16T05:10:11.945Z,98.40
2023-03-16T05:13:14.035Z,98.50
2023-03-16T05:16:16.757Z,98.30
2023-03-16T05:19:19.027Z,98.40
2023-03-16T05:22:21.122Z,98.60
2023-03-16T05:25:23.568Z,98.60
2023-03-16T05:28:25.792Z,98.80
2023-03-16T05:31:28.929Z,99.00
2023-03-16T05:34:31.693Z,99.00
2023-03-16T05:37:38.222Z,99.20
2023-03-16T05:40:40.392Z,99.30
2023-03-16T05:43:42.544Z,99.40
2023-03-16T05:46:45.975Z,99.30
2023-03-16T05:49:48.172Z,99.50
2023-03-16T05:52:50.413Z,99.50
2023-03-16T05:55:53.294Z,99.40
2023-03-16T05:58:56.767Z,99.50
2023-03-16T06:01:59.029Z,99.60
2023-03-16T06:05:02.007Z,99.90
2023-03-16T06:08:04.192Z,99.90
2023-03-16T06:11:06.556Z,99.90
2023-03-16T06:14:08.887Z,99.90
2023-03-16T06:17:11.830Z,99.90
2023-03-16T06:20:13.996Z,99.90
2023-03-16T06:23:16.054Z,99.90
2023-03-16T06:26:18.073Z,99.90
2023-03-16T06:29:20.216Z,99.90
2023-03-16T06:32:22.412Z,99.90
2023-03-16T06:35:24.461Z,99.90
2023-03-16T06:38:26.553Z,99.90
2023-03-16T06:41:28.534Z,99.90
2023-03-16T06:44:31.473Z,99.90
2023-03-16T06:47:33.708Z,99.90
2023-03-16T06:50:36.267Z,99.90
2023-03-16T06:53:39.332Z,99.90
2023-03-16T06:56:42.992Z,99.90
2023-03-16T06:59:46.323Z,99.90
2023-03-16T07:02:48.367Z,99.90
2023-03-16T07:05:50.395Z,99.90
2023-03-16T07:08:52.748Z,99.90
2023-03-16T07:11:54.852Z,99.90
2023-03-16T07:14:56.901Z,99.90
2023-03-16T07:17:58.892Z,99.90
2023-03-16T07:21:00.893Z,99.90
2023-03-16T07:24:02.924Z,99.40
2023-03-16T07:27:05.035Z,98.70
2023-03-16T07:30:07.698Z,98.60
2023-03-16T07:33:12.071Z,98.20
2023-03-16T07:36:14.233Z,98.00
2023-03-16T07:39:17.907Z,97.70
2023-03-16T07:42:20.091Z,97.30
2023-03-16T07:45:22.149Z,96.70
2023-03-16T07:48:24.308Z,96.10
2023-03-16T07:51:26.343Z,96.10
2023-03-16T07:54:28.645Z,95.10
2023-03-16T07:57:31.525Z,94.90
2023-03-16T08:00:34.293Z,94.60
2023-03-16T08:03:36.468Z,93.80
2023-03-16T08:06:39.110Z,93.50
2023-03-16T08:09:41.591Z,92.00
2023-03-16T08:12:43.735Z,91.60
2023-03-16T08:15:50.604Z,90.50
2023-03-16T08:18:53.395Z,90.10
2023-03-16T08:22:01.488Z,86.40
2023-03-16T08:25:06.143Z,83.70
2023-03-16T08:28:09.049Z,80.70
2023-03-16T08:31:12.488Z,78.80
2023-03-16T08:34:16.213Z,78.40
2023-03-16T08:37:24.294Z,76.10
2023-03-16T08:40:29.897Z,75.90
2023-03-16T08:43:32.771Z,74.30
2023-03-16T08:46:35.712Z,75.50
2023-03-16T08:49:38.206Z,76.10
2023-03-16T08:52:41.078Z,76.00
2023-03-16T08:55:43.157Z,74.40
2023-03-16T08:58:46.130Z,79.10
2023-03-16T09:01:48.310Z,77.30
2023-03-16T09:04:50.614Z,77.80
2023-03-16T09:07:54.220Z,80.70
2023-03-16T09:11:11.278Z,81.00
2023-03-16T09:14:14.347Z,85.30
2023-03-16T09:17:16.386Z,86.80
2023-03-16T09:20:22.839Z,89.00
2023-03-16T09:23:37.813Z,88.60
2023-03-16T09:26:40.344Z,86.60
2023-03-16T09:29:43.610Z,84.10
2023-03-16T09:32:48.863Z,82.60
2023-03-16T09:35:52.237Z,82.40
2023-03-16T09:38:54.570Z,81.10
2023-03-16T09:42:25.440Z,81.00
2023-03-16T09:45:41.769Z,79.80
2023-03-16T09:48:47.517Z,79.10
2023-03-16T09:52:08.719Z,78.40
2023-03-16T09:55:33.681Z,78.00
2023-03-16T09:58:36.936Z,75.20
2023-03-16T10:01:41.832Z,75.00
2023-03-16T10:04:52.006Z,73.00
2023-03-16T10:08:02.758Z,73.90
2023-03-16T10:11:32.123Z,70.10
2023-03-16T10:14:43.317Z,67.20
2023-03-16T10:18:13.390Z,65.30
2023-03-16T10:21:18.492Z,68.90
2023-03-16T10:24:34.455Z,72.00
2023-03-16T10:27:39.204Z,75.90
2023-03-16T10:30:43.017Z,73.80
2023-03-16T10:33:46.395Z,66.90
2023-03-16T10:36:48.646Z,65.60
2023-03-16T10:39:50.824Z,63.50
2023-03-16T10:42:53.575Z,61.40
2023-03-16T10:46:02.885Z,63.00
2023-03-16T10:49:27.256Z,65.40
2023-03-16T10:52:43.335Z,68.90
2023-03-16T10:55:47.458Z,66.90
2023-03-16T10:58:49.978Z,62.80
2023-03-16T11:01:52.329Z,63.80
2023-03-16T11:04:55.705Z,57.90
2023-03-16T11:08:27.425Z,58.20
2023-03-16T11:11:34.098Z,57.30
2023-03-16T11:14:37.378Z,56.00
2023-03-16T11:17:45.885Z,54.80
2023-03-16T11:20:48.671Z,54.40
2023-03-16T11:23:56.253Z,54.40
2023-03-16T11:27:01.872Z,55.00
2023-03-16T11:30:10.301Z,54.30
2023-03-16T11:33:15.451Z,53.10
2023-03-16T11:36:38.097Z,54.20
2023-03-16T11:40:16.094Z,52.80
2023-03-16T11:44:10.145Z,53.90
2023-03-16T11:47:27.481Z,53.90
2023-03-16T11:51:02.917Z,53.00
2023-03-16T11:54:38.383Z,56.60
2023-03-16T11:58:03.735Z,60.90
2023-03-16T12:01:15.095Z,63.00
2023-03-16T12:04:23.282Z,66.80
2023-03-16T12:07:25.967Z,68.50
2023-03-16T12:10:52.206Z,70.20
2023-03-16T12:14:06.628Z,71.10
2023-03-16T12:17:16.871Z,72.10
2023-03-16T12:20:34.077Z,71.30
2023-03-16T12:23:53.494Z,74.90
2023-03-16T12:26:57.540Z,74.30
2023-03-16T12:30:27.782Z,76.20
2023-03-16T12:33:53.829Z,76.50
2023-03-16T12:37:08.189Z,77.30
2023-03-16T12:40:12.894Z,77.80
2023-03-16T12:43:29.275Z,77.10
2023-03-16T12:46:49.854Z,77.60
2023-03-16T12:49:52.281Z,77.10
2023-03-16T12:52:54.730Z,78.30
2023-03-16T12:55:58.031Z,78.10
2023-03-16T12:59:10.603Z,78.60
2023-03-16T13:02:34.863Z,78.20
2023-03-16T13:05:44.256Z,79.20
2023-03-16T13:08:52.679Z,79.90
2023-03-16T13:11:55.343Z,79.50
2023-03-16T13:14:57.374Z,80.10
2023-03-16T13:18:17.839Z,80.00
2023-03-16T13:21:21.618Z,80.00
2023-03-16T13:24:35.414Z,81.30
2023-03-16T13:27:40.370Z,81.10
2023-03-16T13:30:48.729Z,82.80
2023-03-16T13:33:55.926Z,83.40
2023-03-16T13:37:01.523Z,83.60
2023-03-16T13:40:04.848Z,83.50
2023-03-16T13:43:13.771Z,83.80
2023-03-16T13:46:22.291Z,84.20
2023-03-16T13:49:24.599Z,83.80
2023-03-16T13:52:31.255Z,84.60
2023-03-16T13:55:36.660Z,84.40
2023-03-16T13:58:40.302Z,85.40
2023-03-16T14:01:45.474Z,85.30
2023-03-16T14:04:48.182Z,85.70
2023-03-16T14:07:52.126Z,86.50
2023-03-16T14:10:59.214Z,86.40
2023-03-16T14:14:18.305Z,86.80
2023-03-16T14:17:22.744Z,86.60
2023-03-16T14:20:28.739Z,86.80
2023-03-16T14:23:37.167Z,86.30
2023-03-16T14:26:47.481Z,86.30
2023-03-16T14:30:16.321Z,85.30
2023-03-16T14:33:34.552Z,85.40
2023-03-16T14:36:39.055Z,85.70
2023-03-16T14:39:41.357Z,86.40
2023-03-16T14:42:44.152Z,85.30
2023-03-16T14:45:46.641Z,85.60
2023-03-16T14:48:48.742Z,85.80
2023-03-16T14:51:53.905Z,85.30
2023-03-16T14:54:55.937Z,85.00
2023-03-16T14:57:58.079Z,84.40
2023-03-16T15:01:00.619Z,84.30
2023-03-16T15:04:03.954Z,84.50
2023-03-16T15:07:24.095Z,85.70
2023-03-16T15:10:30.068Z,85.10
2023-03-16T15:13:42.482Z,85.00
2023-03-16T15:16:44.480Z,84.50
2023-03-16T15:19:46.592Z,84.60
2023-03-16T15:22:50.102Z,85.50
2023-03-16T15:25:57.385Z,85.80
2023-03-16T15:28:59.469Z,86.30
2023-03-16T15:32:01.547Z,87.20
2023-03-16T15:35:04.296Z,87.40
2023-03-16T15:38:34.795Z,88.70
2023-03-16T15:41:47.171Z,90.30
2023-03-16T15:44:49.679Z,90.60
2023-03-16T15:47:53.934Z,90.50
2023-03-16T15:51:01.956Z,90.50
2023-03-16T15:54:07.104Z,90.20
2023-03-16T15:57:11.084Z,90.40
2023-03-16T16:00:29.022Z,90.80
2023-03-16T16:03:31.884Z,91.40
2023-03-16T16:06:34.052Z,91.80
2023-03-16T16:09:38.513Z,91.60
2023-03-16T16:12:40.679Z,91.80
2023-03-16T16:15:42.912Z,92.00
2023-03-16T16:18:46.741Z,92.20
2023-03-16T16:21:48.969Z,92.30
2023-03-16T16:24:51.580Z,92.70
2023-03-16T16:27:53.915Z,92.80
2023-03-16T16:30:56.911Z,92.80
2023-03-16T16:33:59.233Z,92.90
2023-03-16T16:37:01.250Z,93.30
2023-03-16T16:40:03.565Z,93.30
2023-03-16T16:43:06.501Z,93.30
2023-03-16T16:46:24.057Z,93.40
2023-03-16T16:49:28.470Z,93.60
2023-03-16T16:52:30.943Z,93.60
2023-03-16T16:55:34.109Z,93.60
2023-03-16T16:58:36.160Z,93.80
2023-03-16T17:01:39.115Z,94.00
2023-03-16T17:04:41.345Z,93.90
2023-03-16T17:07:43.678Z,94.00
2023-03-16T17:10:46.713Z,93.80
2023-03-16T17:13:50.940Z,94.20
2023-03-16T17:16:53.539Z,94.50
2023-03-16T17:19:55.573Z,94.60
2023-03-16T17:22:58.891Z,95.80
2023-03-16T17:26:21.055Z,96.30
2023-03-16T17:29:34.025Z,96.60
2023-03-16T17:32:36.452Z,97.60
2023-03-16T17:35:38.824Z,97.80
2023-03-16T17:38:41.071Z,98.00
2023-03-16T17:41:43.939Z,98.60
2023-03-16T17:44:49.333Z,99.20
2023-03-16T17:47:51.532Z,99.60
2023-03-16T17:50:53.602Z,99.90
2023-03-16T17:53:56.779Z,99.90
2023-03-16T17:56:58.917Z,99.90
2023-03-16T18:00:04.385Z,99.90
2023-03-16T18:03:14.719Z,99.90
2023-03-16T18:06:25.709Z,99.90
2023-03-16T18:09:28.862Z,99.90
2023-03-16T18:12:31.311Z,99.90
2023-03-16T18:15:36.691Z,99.90
2023-03-16T18:18:40.283Z,99.90
2023-03-16T18:21:42.474Z,99.90
2023-03-16T18:24:45.308Z,99.90
2023-03-16T18:27:48.368Z,99.90
2023-03-16T18:30:52.917Z,99.90
2023-03-16T18:33:58.272Z,99.90
2023-03-16T18:37:06.250Z,99.90
2023-03-16T18:40:15.825Z,99.90
2023-03-16T18:43:18.492Z,99.90
2023-03-16T18:46:32.723Z,99.90
2023-03-16T18:49:36.927Z,99.90
2023-03-16T18:52:41.212Z,99.90
2023-03-16T18:55:46.350Z,99.90
2023-03-16T18:58:49.979Z,99.90
2023-03-16T19:01:53.361Z,99.90
2023-03-16T19:04:58.302Z,99.90
2023-03-16T19:08:00.903Z,99.90
2023-03-16T19:11:04.805Z,99.90
2023-03-16T19:14:21.055Z,99.90
2023-03-16T19:17:23.066Z,99.90
2023-03-16T19:20:32.031Z,99.90
2023-03-16T19:23:36.988Z,99.90
2023-03-16T19:26:39.168Z,99.90
2023-03-16T19:29:41.360Z,99.90
2023-03-16T19:32:43.608Z,99.90
2023-03-16T19:35:51.799Z,99.90
2023-03-16T19:38:54.613Z,99.90
2023-03-16T19:41:59.038Z,99.90
2023-03-16T19:45:01.586Z,99.90
2023-03-16T19:48:10.387Z,99.90
2023-03-16T19:51:17.646Z,99.90
2023-03-16T19:54:27.323Z,99.90
2023-03-16T19:57:29.454Z,99.90
2023-03-16T20:00:31.948Z,99.90
2023-03-16T20:03:36.599Z,99.90
2023-03-16T20:06:38.656Z,99.90
2023-03-16T20:09:40.983Z,99.90
2023-03-16T20:12:43.169Z,99.90
2023-03-16T20:15:45.521Z,99.90
2023-03-16T20:18:50.963Z,99.90
2023-03-16T20:21:53.100Z,99.90
2023-03-16T20:24:58.002Z,99.90
2023-03-16T20:28:02.358Z,99.90
2023-03-16T20:31:08.322Z,99.90
2023-03-16T20:34:23.736Z,99.90
2023-03-16T20:37:28.593Z,99.90
2023-03-16T20:40:30.968Z,99.90
2023-03-16T20:43:33.227Z,99.90
2023-03-16T20:46:35.632Z,99.90
2023-03-16T20:49:38.223Z,99.90
2023-03-16T20:52:40.651Z,99.90
2023-03-16T20:55:43.376Z,99.90
2023-03-16T20:58:49.957Z,99.90
2023-03-16T21:01:54.683Z,99.90
2023-03-16T21:04:59.594Z,99.90
2023-03-16T21:08:02.650Z,99.90
2023-03-16T21:11:08.638Z,99.90
2023-03-16T21:14:21.576Z,99.90
2023-03-16T21:17:36.425Z,99.90
2023-03-16T21:20:38.330Z,99.90
2023-03-16T21:23:45.145Z,99.90
2023-03-16T21:26:48.541Z,99.90
2023-03-16T21:29:50.647Z,99.90
2023-03-16T21:32:53.952Z,99.90
2023-03-16T21:35:57.071Z,99.90
2023-03-16T21:38:59.088Z,99.90
2023-03-16T21:42:01.697Z,99.90
2023-03-16T21:45:03.948Z,99.90
2023-03-16T21:48:06.483Z,99.90
2023-03-16T21:51:30.337Z,99.90
2023-03-16T21:54:32.756Z,99.90
2023-03-16T21:57:34.713Z,99.90
2023-03-16T22:00:37.005Z,99.90
2023-03-16T22:03:50.636Z,99.90
2023-03-16T22:06:53.484Z,99.90
2023-03-16T22:09:55.988Z,99.90
2023-03-16T22:12:58.631Z,99.90
2023-03-16T22:16:01.070Z,99.90
2023-03-16T22:19:03.828Z,99.90
2023-03-16T22:22:10.064Z,99.90
2023-03-16T22:25:18.346Z,99.90
2023-03-16T22:28:23.772Z,99.90
2023-03-16T22:31:32.970Z,99.90
2023-03-16T22:34:49.358Z,99.90
2023-03-16T22:37:51.965Z,99.90
2023-03-16T22:40:54.563Z,99.90
2023-03-16T22:43:57.674Z,99.90
2023-03-16T22:46:59.674Z,99.90
2023-03-16T22:50:01.786Z,99.90
2023-03-16T22:53:07.416Z,99.90
2023-03-16T22:56:10.606Z,99.90
2023-03-16T22:59:17.333Z,99.90
2023-03-16T23:02:24.493Z,99.90
2023-03-16T23:05:29.346Z,99.90
2023-03-16T23:08:32.586Z,99.90
2023-03-16T23:11:37.173Z,99.90
2023-03-16T23:14:39.631Z,99.90
2023-03-16T23:17:42.630Z,99.90
2023-03-16T23:20:46.316Z,99.90
2023-03-16T23:24:02.524Z,99.90
2023-03-16T23:27:14.641Z,99.90
2023-03-16T23:30:24.179Z,99.90
2023-03-16T23:33:27.168Z,99.90
2023-03-16T23:36:29.619Z,99.90
2023-03-16T23:39:32.624Z,99.90
2023-03-16T23:42:34.660Z,99.90
2023-03-16T23:45:45.175Z,99.90
2023-03-16T23:48:49.381Z,99.90
2023-03-16T23:51:52.695Z,99.90
2023-03-16T23:54:55.020Z,99.90
2023-03-16T23:57:58.259Z,99.90
